Terminal Aerodrome Forecast
Issued by NWS Topeka, KS

Home | Current Version | Previous Version | Graphics & Text | Print | Product List | Glossary On
Versions: 1 2 3 4 5 6 7 8 9 10 11 12 13
248
FTUS43 KTOP 252331
TAFTOP
TAF
KTOP 252331Z 2600/2624 34008KT P6SM OVC045
     FM260200 34010KT P6SM VCSH OVC040
     FM260400 34012KT P6SM VCSH OVC025
     FM260600 34013KT P6SM OVC015
     FM261500 33015G23KT P6SM OVC025
     FM261900 34015G23KT P6SM OVC030=

USA.gov is the U.S. government's official web portal to all federal, state and local government web resources and services.